Time;durP1;ratioP1;P1;durP2;ratioP2;P2;SDS_P1;SDS_P2;PMS_P1;PMS_P2;Temp;Humidity;BMP_temperature;BMP_pressure;BME280_temperature;BME280_humidity;BME280_pressure;Samples;Min_cycle;Max_cycle;Signal;HPM_P1;HPM_P2
2023/06/30 00:00:54;;;;;;;3.30;3.00;;;;;;;24.30;43.16;95289.16;4988769;28;20704;-85
2023/06/30 00:03:22;;;;;;;3.95;3.03;;;;;;;24.23;43.64;95292.06;4986947;28;20231;-85
2023/06/30 00:05:49;;;;;;;3.20;2.90;;;;;;;24.26;43.77;95283.63;4989012;28;20302;-86
2023/06/30 00:08:15;;;;;;;3.75;3.17;;;;;;;24.17;44.88;95282.59;4988846;28;20696;-86
2023/06/30 00:10:42;;;;;;;3.72;3.30;;;;;;;24.08;45.76;95279.72;4988395;28;20206;-85
2023/06/30 00:13:09;;;;;;;4.00;3.60;;;;;;;24.02;46.75;95272.94;4989369;28;20199;-85
2023/06/30 00:15:35;;;;;;;3.65;3.30;;;;;;;23.84;48.85;95265.63;4989172;28;20276;-85
2023/06/30 00:18:02;;;;;;;4.35;3.80;;;;;;;23.80;47.87;95263.78;4986997;28;20262;-85
2023/06/30 00:20:29;;;;;;;5.40;3.70;;;;;;;23.86;47.17;95263.47;4990914;28;20199;-85
2023/06/30 00:22:56;;;;;;;4.07;3.67;;;;;;;23.88;47.30;95263.22;4992623;28;20649;-85
2023/06/30 00:25:22;;;;;;;4.05;3.63;;;;;;;23.88;48.22;95250.06;4992274;28;20576;-86
2023/06/30 00:27:49;;;;;;;4.20;3.80;;;;;;;23.88;48.01;95247.44;4992393;28;20238;-85
2023/06/30 00:30:15;;;;;;;3.67;3.38;;;;;;;23.83;47.82;95237.75;4992574;28;20215;-85
2023/06/30 00:32:42;;;;;;;4.40;3.28;;;;;;;23.84;48.26;95238.53;4992149;28;20239;-86
2023/06/30 00:35:08;;;;;;;5.30;3.05;;;;;;;23.82;47.89;95233.53;4991396;28;20200;-85
2023/06/30 00:37:36;;;;;;;3.30;3.00;;;;;;;23.78;48.17;95232.50;4992541;28;20905;-85
2023/06/30 00:40:03;;;;;;;5.50;3.33;;;;;;;23.74;48.08;95232.25;4992187;28;20212;-85
2023/06/30 00:42:30;;;;;;;3.80;3.20;;;;;;;23.76;48.43;95238.03;4992344;28;20756;-85
2023/06/30 00:44:59;;;;;;;3.95;2.83;;;;;;;23.72;48.59;95249.31;4992433;28;20227;-86
2023/06/30 00:47:26;;;;;;;6.90;3.47;;;;;;;23.72;48.59;95244.06;4992190;28;20712;-85
2023/06/30 00:49:53;;;;;;;3.47;3.17;;;;;;;23.66;48.84;95245.16;4991324;28;20695;-85
2023/06/30 00:52:20;;;;;;;4.32;3.33;;;;;;;23.62;48.85;95241.47;4992009;28;20728;-85
2023/06/30 00:54:48;;;;;;;3.35;3.15;;;;;;;23.68;48.83;95225.41;4991569;28;20207;-85
2023/06/30 00:57:14;;;;;;;3.53;3.22;;;;;;;23.70;49.21;95230.41;4992420;28;20208;-85
2023/06/30 00:59:40;;;;;;;3.38;3.08;;;;;;;23.67;49.25;95223.84;4992254;28;20203;-85
2023/06/30 01:02:13;;;;;;;3.28;3.00;;;;;;;23.69;48.99;95231.44;4991889;28;20223;-85
2023/06/30 01:04:49;;;;;;;4.18;3.38;;;;;;;23.67;49.02;95223.84;4992290;28;20673;-85
2023/06/30 01:07:23;;;;;;;4.68;3.40;;;;;;;23.68;48.97;95228.03;4979139;28;20640;-85
2023/06/30 01:09:57;;;;;;;3.85;3.47;;;;;;;23.70;48.63;95230.41;4992321;28;20199;-85
2023/06/30 01:12:24;;;;;;;5.25;3.63;;;;;;;23.71;48.53;95227.50;4992142;28;20215;-85
2023/06/30 01:14:52;;;;;;;3.42;3.13;;;;;;;23.76;48.54;95224.88;4991521;28;20249;-86
2023/06/30 01:17:21;;;;;;;3.60;3.30;;;;;;;23.75;48.69;95225.13;4992083;28;20204;-85
2023/06/30 01:19:50;;;;;;;3.67;3.38;;;;;;;23.64;49.01;95227.03;4990903;28;20298;-86
2023/06/30 01:22:24;;;;;;;4.88;3.42;;;;;;;23.62;48.96;95229.13;4990121;28;20223;-86
2023/06/30 01:24:57;;;;;;;3.60;3.30;;;;;;;23.62;48.94;95223.88;4991802;28;20327;-86
2023/06/30 01:27:24;;;;;;;5.80;3.60;;;;;;;23.66;48.75;95218.88;4991206;28;20578;-85
2023/06/30 01:29:52;;;;;;;4.40;3.38;;;;;;;23.58;49.47;95220.19;4991634;28;20222;-86
2023/06/30 01:32:19;;;;;;;3.80;3.50;;;;;;;23.52;49.52;95228.34;4991286;28;20720;-86
2023/06/30 01:34:47;;;;;;;4.65;3.90;;;;;;;23.48;49.89;95220.16;4991077;28;20241;-85
2023/06/30 01:37:14;;;;;;;5.10;3.78;;;;;;;23.43;50.73;95202.59;4991702;28;20219;-85
2023/06/30 01:39:41;;;;;;;4.75;3.50;;;;;;;23.39;50.47;95204.16;4989675;28;20207;-85
2023/06/30 01:42:10;;;;;;;4.32;3.30;;;;;;;23.36;51.19;95207.31;4990909;28;20223;-86
2023/06/30 01:44:37;;;;;;;4.00;3.60;;;;;;;23.39;51.14;95208.63;4991668;28;20227;-85
2023/06/30 01:47:05;;;;;;;4.35;3.45;;;;;;;23.27;52.07;95208.16;4990990;28;20211;-85
2023/06/30 01:49:33;;;;;;;3.70;3.40;;;;;;;23.34;51.55;95213.91;4991459;28;20475;-85
2023/06/30 01:51:59;;;;;;;5.78;3.50;;;;;;;23.26;51.96;95219.69;4991185;28;20227;-85
2023/06/30 01:54:26;;;;;;;3.88;3.58;;;;;;;23.24;52.34;95211.28;4989848;28;20289;-85
2023/06/30 01:56:52;;;;;;;3.80;3.42;;;;;;;23.20;52.67;95215.50;4990579;28;20699;-86
2023/06/30 01:59:20;;;;;;;4.72;3.90;;;;;;;23.23;52.31;95221.00;4991148;28;20214;-85
2023/06/30 02:01:47;;;;;;;4.15;3.35;;;;;;;23.25;52.91;95210.25;4971677;28;20220;-85
2023/06/30 02:04:13;;;;;;;5.40;3.70;;;;;;;23.22;53.08;95214.19;4971418;28;20634;-85
2023/06/30 02:06:40;;;;;;;4.10;3.70;;;;;;;23.24;53.12;95206.03;4971761;28;20522;-85
2023/06/30 02:09:06;;;;;;;5.32;4.10;;;;;;;23.27;53.33;95206.31;4971448;28;20298;-85
2023/06/30 02:11:33;;;;;;;5.97;3.67;;;;;;;23.28;53.20;95201.84;4981277;28;20293;-85
2023/06/30 02:13:59;;;;;;;4.03;3.63;;;;;;;23.22;53.48;95195.81;4990804;28;20204;-85
2023/06/30 02:16:27;;;;;;;6.53;3.65;;;;;;;23.18;53.48;95191.34;4990977;28;20207;-85
2023/06/30 02:18:54;;;;;;;4.07;3.78;;;;;;;23.18;53.83;95202.63;4990773;28;20219;-85
2023/06/30 02:21:21;;;;;;;4.50;4.10;;;;;;;23.09;54.18;95206.84;4989672;28;20220;-85
2023/06/30 02:23:48;;;;;;;9.52;4.07;;;;;;;23.07;54.28;95207.13;4991015;28;20227;-85
2023/06/30 02:26:14;;;;;;;5.15;4.30;;;;;;;23.06;54.71;95204.75;4990414;28;20200;-85
2023/06/30 02:28:41;;;;;;;4.10;3.80;;;;;;;23.11;54.83;95203.94;4989386;28;20680;-85
2023/06/30 02:31:08;;;;;;;4.18;3.78;;;;;;;23.14;54.22;95198.94;4990799;28;20506;-85
2023/06/30 02:33:36;;;;;;;4.50;4.10;;;;;;;23.13;54.68;95197.38;4990120;28;20211;-86
2023/06/30 02:36:03;;;;;;;5.00;4.15;;;;;;;23.13;54.88;95202.63;4990412;28;20204;-86
2023/06/30 02:38:30;;;;;;;4.80;4.00;;;;;;;23.14;54.76;95203.41;4990571;28;20286;-85
2023/06/30 02:40:56;;;;;;;5.35;4.13;;;;;;;23.15;54.70;95200.53;4989675;28;20203;-85
2023/06/30 02:43:23;;;;;;;3.97;3.67;;;;;;;23.17;54.40;95197.63;4988348;28;20211;-85
2023/06/30 02:45:49;;;;;;;5.65;3.97;;;;;;;23.16;54.91;95194.22;4990262;28;20204;-85
2023/06/30 02:48:16;;;;;;;4.43;4.03;;;;;;;23.19;55.01;95190.28;4989801;28;20215;-85
2023/06/30 02:50:44;;;;;;;4.57;4.10;;;;;;;23.18;55.24;95186.06;4989783;28;20218;-86
2023/06/30 02:53:10;;;;;;;5.32;4.20;;;;;;;23.19;55.32;95185.03;4990230;28;20218;-85
2023/06/30 02:55:37;;;;;;;5.90;4.85;;;;;;;23.19;55.58;95185.81;4989184;28;20204;-86
2023/06/30 02:58:03;;;;;;;4.78;4.38;;;;;;;23.15;56.05;95187.38;4990282;28;20629;-85
2023/06/30 03:00:30;;;;;;;5.07;4.22;;;;;;;23.13;56.43;95193.97;4988697;28;20202;-85
2023/06/30 03:02:56;;;;;;;4.13;3.78;;;;;;;23.11;56.45;95196.84;4989522;28;20757;-85
2023/06/30 03:05:23;;;;;;;5.57;4.28;;;;;;;23.03;56.52;95200.81;4989859;28;20234;-85
2023/06/30 03:07:50;;;;;;;4.70;4.22;;;;;;;23.02;56.90;95190.56;4989678;28;20204;-85
2023/06/30 03:10:17;;;;;;;4.47;4.07;;;;;;;23.03;56.69;95200.81;4989753;28;20203;-85
2023/06/30 03:12:43;;;;;;;4.50;4.05;;;;;;;23.03;57.21;95202.66;4989146;28;20727;-85
2023/06/30 03:15:11;;;;;;;4.90;4.40;;;;;;;22.99;57.56;95197.13;4988501;28;20204;-85
2023/06/30 03:17:37;;;;;;;4.55;4.15;;;;;;;22.99;57.14;95188.47;4989388;28;20215;-85
2023/06/30 03:20:10;;;;;;;5.97;4.00;;;;;;;22.94;57.79;95188.47;4988969;28;20210;-85
2023/06/30 03:22:36;;;;;;;4.05;3.75;;;;;;;22.95;57.96;95187.41;4989622;28;20239;-86
2023/06/30 03:25:08;;;;;;;5.10;4.43;;;;;;;22.96;57.70;95178.47;4989393;28;20230;-87
2023/06/30 03:27:34;;;;;;;5.03;4.22;;;;;;;22.94;57.86;95184.00;4989375;28;20287;-85
2023/06/30 03:30:02;;;;;;;4.90;4.38;;;;;;;22.95;58.15;95190.81;4989604;28;20285;-85
2023/06/30 03:32:28;;;;;;;4.57;4.20;;;;;;;22.91;58.81;95187.13;4987500;28;20235;-85
2023/06/30 03:34:55;;;;;;;4.65;4.20;;;;;;;22.84;59.92;95184.00;4989558;28;20218;-85
2023/06/30 03:37:21;;;;;;;7.65;4.47;;;;;;;22.84;61.16;95184.00;4989798;28;20211;-85
2023/06/30 03:39:47;;;;;;;5.78;4.38;;;;;;;22.79;60.86;95173.50;4989476;28;20212;-87
2023/06/30 03:42:15;;;;;;;4.88;4.47;;;;;;;22.75;60.88;95178.44;4989674;28;20224;-85
2023/06/30 03:44:42;;;;;;;7.03;4.88;;;;;;;22.81;61.00;95179.28;4989424;28;20231;-85
2023/06/30 03:47:08;;;;;;;4.78;4.20;;;;;;;22.80;61.08;95190.81;4987713;28;20204;-85
2023/06/30 03:49:34;;;;;;;5.40;4.28;;;;;;;22.81;60.38;95192.41;4989148;28;20585;-85
2023/06/30 03:52:01;;;;;;;4.88;4.47;;;;;;;22.82;60.50;95188.72;4989017;28;20215;-86
2023/06/30 03:54:27;;;;;;;6.18;4.65;;;;;;;22.82;60.87;95193.97;4977321;28;20234;-85
2023/06/30 03:56:54;;;;;;;5.30;4.70;;;;;;;22.78;61.21;95195.56;4989362;28;20348;-85
2023/06/30 03:59:22;;;;;;;7.25;4.72;;;;;;;22.80;61.22;95187.41;4989467;28;20250;-85
2023/06/30 04:01:48;;;;;;;4.93;4.53;;;;;;;22.79;61.20;95183.22;4988772;28;20227;-84
2023/06/30 04:04:14;;;;;;;5.35;4.80;;;;;;;22.85;60.99;95192.69;4987501;28;20700;-86
2023/06/30 04:06:42;;;;;;;5.50;4.93;;;;;;;22.85;61.08;95195.31;4989083;28;20211;-86
2023/06/30 04:09:08;;;;;;;5.07;4.68;;;;;;;22.82;61.51;95196.59;4988732;28;20203;-85
2023/06/30 04:11:35;;;;;;;5.90;5.22;;;;;;;22.78;61.87;95203.44;4988492;28;20211;-85
2023/06/30 04:14:01;;;;;;;5.95;5.45;;;;;;;22.75;63.03;95196.81;4989237;28;20202;-87
2023/06/30 04:16:29;;;;;;;7.32;5.57;;;;;;;22.72;63.11;95194.72;4988828;28;20199;-85
2023/06/30 04:18:56;;;;;;;6.20;5.70;;;;;;;22.75;63.34;95191.56;4989133;28;20204;-86
2023/06/30 04:21:22;;;;;;;6.38;5.78;;;;;;;22.73;64.52;95185.81;4986077;28;20223;-85
2023/06/30 04:23:49;;;;;;;7.35;6.53;;;;;;;22.65;65.32;95188.19;4988611;28;20203;-85
2023/06/30 04:26:16;;;;;;;7.72;6.93;;;;;;;22.64;64.53;95183.97;4988760;28;20204;-85
2023/06/30 04:28:43;;;;;;;7.20;6.60;;;;;;;22.65;64.82;95175.84;4988395;28;20750;-85
2023/06/30 04:31:09;;;;;;;6.95;6.35;;;;;;;22.67;64.81;95165.88;4988547;28;20224;-86
2023/06/30 04:33:37;;;;;;;8.38;7.32;;;;;;;22.66;66.32;95164.28;4988595;28;20592;-85
2023/06/30 04:36:06;;;;;;;8.60;6.70;;;;;;;22.65;65.84;95161.94;4987272;28;20204;-85
2023/06/30 04:38:33;;;;;;;7.47;6.80;;;;;;;22.65;66.12;95159.31;4988457;28;20592;-85
2023/06/30 04:40:59;;;;;;;7.25;6.63;;;;;;;22.64;67.73;95155.88;4988435;28;20204;-85
2023/06/30 04:43:26;;;;;;;7.38;6.45;;;;;;;22.63;67.58;95153.53;4988880;28;20207;-85
2023/06/30 04:45:52;;;;;;;7.43;6.78;;;;;;;22.62;68.64;95147.50;4988780;28;20224;-85
2023/06/30 04:48:19;;;;;;;9.60;6.93;;;;;;;22.60;69.76;95139.09;4988672;28;20468;-85
2023/06/30 04:50:46;;;;;;;7.32;6.68;;;;;;;22.62;68.60;95137.00;4988340;28;20601;-85
2023/06/30 04:53:13;;;;;;;7.38;6.75;;;;;;;22.63;69.64;95135.16;4986900;28;20277;-85
2023/06/30 04:55:39;;;;;;;7.70;6.82;;;;;;;22.53;71.25;95138.56;4988126;28;20208;-84
2023/06/30 04:58:06;;;;;;;8.00;7.20;;;;;;;22.53;72.80;95132.50;4988566;28;20211;-85
2023/06/30 05:00:32;;;;;;;8.40;7.18;;;;;;;22.43;72.58;95138.56;4988471;28;20207;-85
2023/06/30 05:02:59;;;;;;;9.93;8.00;;;;;;;22.41;72.80;95143.28;4987974;28;20219;-85
2023/06/30 05:05:25;;;;;;;8.52;7.68;;;;;;;22.27;74.11;95139.59;4989009;28;20376;-85
2023/06/30 05:07:53;;;;;;;9.25;8.30;;;;;;;22.18;77.32;95138.50;4990910;28;20494;-85
2023/06/30 05:10:19;;;;;;;8.48;7.70;;;;;;;22.09;78.84;95132.22;4991838;28;20211;-85
2023/06/30 05:12:48;;;;;;;9.27;8.48;;;;;;;22.02;77.67;95137.69;4991575;28;20219;-86
2023/06/30 05:15:15;;;;;;;8.95;8.05;;;;;;;21.94;80.92;95143.41;4992302;28;20287;-85
2023/06/30 05:17:41;;;;;;;8.30;7.60;;;;;;;22.13;76.94;95147.16;4992005;28;20220;-86
2023/06/30 05:20:09;;;;;;;9.80;8.40;;;;;;;22.17;77.28;95142.97;4991211;28;20258;-85
2023/06/30 05:22:35;;;;;;;8.70;7.85;;;;;;;22.19;76.22;95148.75;4991975;28;20227;-85
2023/06/30 05:25:03;;;;;;;8.45;7.65;;;;;;;22.24;75.74;95153.22;4990004;28;20413;-85
2023/06/30 05:27:31;;;;;;;9.82;8.70;;;;;;;22.20;78.19;95149.53;4991310;28;20200;-86
2023/06/30 05:29:57;;;;;;;10.18;9.18;;;;;;;22.21;77.22;95154.53;4991697;28;20203;-85
2023/06/30 05:32:24;;;;;;;10.30;9.30;;;;;;;22.07;80.93;95155.28;4990856;28;20627;-85
2023/06/30 05:34:50;;;;;;;10.10;9.10;;;;;;;22.11;78.86;95154.53;4991708;28;20204;-85
2023/06/30 05:37:17;;;;;;;10.77;9.77;;;;;;;22.08;79.02;95156.88;4991552;28;20207;-85
2023/06/30 05:39:43;;;;;;;11.77;9.57;;;;;;;22.17;78.47;95158.72;4991306;28;20207;-85
2023/06/30 05:42:11;;;;;;;10.95;9.50;;;;;;;22.24;80.13;95155.84;4989649;28;20736;-86
2023/06/30 05:44:37;;;;;;;11.20;10.13;;;;;;;22.32;79.12;95153.47;4990950;28;20733;-85
2023/06/30 05:47:05;;;;;;;9.65;8.75;;;;;;;22.32;80.73;95155.34;4990640;28;20778;-85
2023/06/30 05:49:31;;;;;;;11.10;10.07;;;;;;;22.39;79.83;95156.66;4991566;28;20203;-86
2023/06/30 05:51:58;;;;;;;11.43;9.13;;;;;;;22.43;78.93;95158.75;4990938;28;20227;-86
2023/06/30 05:54:24;;;;;;;11.13;10.02;;;;;;;22.44;79.66;95162.97;4990970;28;20706;-84
2023/06/30 05:56:50;;;;;;;11.15;9.93;;;;;;;22.43;77.65;95159.53;4989894;28;20203;-85
2023/06/30 05:59:18;;;;;;;10.20;9.20;;;;;;;22.41;77.88;95159.03;4991388;28;20236;-85
2023/06/30 06:01:45;;;;;;;14.13;12.65;;;;;;;22.46;78.58;95168.75;4990802;28;20231;-86
2023/06/30 06:04:12;;;;;;;12.50;11.02;;;;;;;22.46;78.65;95168.75;4991442;28;20565;-85
2023/06/30 06:06:38;;;;;;;13.32;10.77;;;;;;;22.46;78.13;95172.16;4991019;28;20747;-85
2023/06/30 06:09:05;;;;;;;11.45;10.27;;;;;;;22.34;79.82;95177.63;4990610;28;20207;-85
2023/06/30 06:11:31;;;;;;;11.93;10.10;;;;;;;22.40;78.80;95181.84;4990450;28;20227;-86
2023/06/30 06:13:58;;;;;;;10.48;9.48;;;;;;;22.45;78.57;95183.69;4989334;28;20199;-86
2023/06/30 06:16:26;;;;;;;10.05;9.10;;;;;;;22.52;79.19;95186.03;4989857;28;20720;-85
2023/06/30 06:18:52;;;;;;;10.77;9.77;;;;;;;22.62;78.14;95188.69;4990907;28;20573;-85
2023/06/30 06:21:18;;;;;;;10.93;9.90;;;;;;;22.65;76.36;95191.59;4989567;28;20238;-86
2023/06/30 06:23:45;;;;;;;11.32;9.68;;;;;;;22.66;77.01;95197.63;4990543;28;20207;-86
2023/06/30 06:26:11;;;;;;;10.50;9.40;;;;;;;22.66;77.45;95202.88;4990396;28;20297;-86
2023/06/30 06:28:38;;;;;;;11.52;10.50;;;;;;;22.61;78.38;95202.88;4988505;28;20958;-85
2023/06/30 06:31:04;;;;;;;12.05;10.98;;;;;;;22.62;77.88;95199.97;4989837;28;20218;-85
2023/06/30 06:33:32;;;;;;;10.90;9.93;;;;;;;22.65;78.41;95204.72;4990700;28;20211;-85
2023/06/30 06:35:58;;;;;;;12.10;10.50;;;;;;;22.66;78.52;95201.03;4990574;28;20202;-86
2023/06/30 06:38:25;;;;;;;12.52;10.23;;;;;;;22.65;80.21;95201.28;4990466;28;20215;-85
2023/06/30 06:40:51;;;;;;;13.38;10.90;;;;;;;22.48;81.98;95198.91;4989894;28;20199;-85
2023/06/30 06:43:18;;;;;;;12.27;10.98;;;;;;;22.52;81.32;95199.16;4990215;28;20669;-86
2023/06/30 06:45:45;;;;;;;12.05;10.85;;;;;;;22.60;80.49;95198.66;4988501;28;20451;-86
2023/06/30 06:48:22;;;;;;;13.15;11.20;;;;;;;22.67;80.14;95207.06;4989885;28;20687;-85
2023/06/30 06:50:52;;;;;;;12.65;11.55;;;;;;;22.69;78.89;95202.34;4989715;28;20211;-85
2023/06/30 06:53:20;;;;;;;13.15;11.73;;;;;;;22.67;78.68;95207.88;4989747;28;20206;-86
2023/06/30 06:55:48;;;;;;;13.15;11.85;;;;;;;22.67;79.84;95212.31;4990048;28;20199;-87
2023/06/30 06:58:14;;;;;;;13.45;12.25;;;;;;;22.65;79.65;95214.41;4989829;28;20210;-85
2023/06/30 07:00:41;;;;;;;13.50;12.10;;;;;;;22.63;79.04;95211.25;4988083;28;20199;-86
2023/06/30 07:03:07;;;;;;;14.77;13.38;;;;;;;22.63;79.30;95216.50;4973940;28;20227;-85
2023/06/30 07:05:33;;;;;;;13.43;12.02;;;;;;;22.58;79.86;95206.78;4990156;28;20600;-85
2023/06/30 07:08:04;;;;;;;13.27;11.98;;;;;;;22.54;79.71;95212.81;4989868;28;20207;-85
2023/06/30 07:10:31;;;;;;;13.18;11.90;;;;;;;22.50;80.28;95203.91;4990124;28;20258;-86
2023/06/30 07:12:58;;;;;;;14.13;12.73;;;;;;;22.43;82.04;95198.91;4989413;28;20218;-85
2023/06/30 07:15:25;;;;;;;14.73;12.85;;;;;;;22.44;82.65;95207.56;4989544;28;20204;-85
2023/06/30 07:17:51;;;;;;;18.50;14.75;;;;;;;22.45;83.54;95198.66;4987797;28;20207;-85
2023/06/30 07:20:18;;;;;;;14.35;12.95;;;;;;;22.37;83.61;95195.47;4989063;28;20207;-86
2023/06/30 07:22:44;;;;;;;15.05;13.55;;;;;;;22.42;83.63;95196.53;4988999;28;20231;-86
2023/06/30 07:25:12;;;;;;;14.10;12.75;;;;;;;22.42;85.08;95191.28;4989616;28;20592;-86
2023/06/30 07:27:39;;;;;;;13.52;12.32;;;;;;;22.51;83.37;95197.63;4988984;28;20207;-85
2023/06/30 07:30:07;;;;;;;13.80;12.45;;;;;;;22.45;84.02;95196.03;4989189;28;20214;-85
2023/06/30 07:32:35;;;;;;;13.27;11.98;;;;;;;22.46;84.61;95197.59;4988990;28;20239;-86
2023/06/30 07:35:02;;;;;;;14.55;13.05;;;;;;;22.48;84.31;95195.50;4987843;28;20225;-87
2023/06/30 07:37:28;;;;;;;14.07;12.75;;;;;;;22.51;83.56;95205.50;4989173;28;20203;-86
2023/06/30 07:39:55;;;;;;;13.70;12.40;;;;;;;22.48;84.30;95209.41;4989637;28;20195;-86
2023/06/30 07:42:23;;;;;;;13.77;12.48;;;;;;;22.42;85.59;95210.44;4989432;28;20215;-85
2023/06/30 07:44:50;;;;;;;14.15;12.75;;;;;;;22.41;84.12;95208.88;4989068;28;20206;-85
2023/06/30 07:47:17;;;;;;;15.45;13.98;;;;;;;22.37;84.83;95210.41;4989102;28;20657;-85
2023/06/30 07:49:43;;;;;;;15.55;14.05;;;;;;;22.40;85.02;95212.53;4988135;28;20199;-86
2023/06/30 07:52:10;;;;;;;15.60;14.00;;;;;;;22.44;85.12;95207.56;4988778;28;20235;-85
2023/06/30 07:54:36;;;;;;;15.73;14.20;;;;;;;22.52;84.66;95212.28;4989088;28;20208;-84
2023/06/30 07:57:03;;;;;;;16.75;14.20;;;;;;;22.56;85.34;95214.13;4988946;28;20605;-85
2023/06/30 07:59:31;;;;;;;15.60;14.10;;;;;;;22.61;84.15;95215.97;4988737;28;20231;-85
2023/06/30 08:01:58;;;;;;;15.93;14.32;;;;;;;22.58;85.19;95219.91;4989161;28;20228;-86
2023/06/30 08:04:24;;;;;;;15.15;13.75;;;;;;;22.55;84.67;95223.06;4989112;28;20211;-86
2023/06/30 08:06:50;;;;;;;16.00;14.40;;;;;;;22.55;86.36;95224.88;4986963;28;20226;-85
2023/06/30 08:09:18;;;;;;;16.33;14.65;;;;;;;22.53;85.08;95217.28;4988856;28;20211;-86
2023/06/30 08:11:44;;;;;;;15.90;14.38;;;;;;;22.50;85.41;95217.81;4988903;28;20231;-86
2023/06/30 08:14:11;;;;;;;16.35;14.75;;;;;;;22.50;87.37;95220.44;4988628;28;20250;-86
2023/06/30 08:16:39;;;;;;;16.33;14.73;;;;;;;22.55;87.14;95220.44;4989252;28;20195;-85
2023/06/30 08:19:05;;;;;;;16.25;14.55;;;;;;;22.57;86.10;95220.97;4989175;28;20234;-86
2023/06/30 08:21:32;;;;;;;16.02;14.43;;;;;;;22.52;87.57;95222.78;4986319;28;20227;-85
2023/06/30 08:23:58;;;;;;;17.52;15.73;;;;;;;22.57;87.74;95225.41;4988617;28;20557;-85
2023/06/30 08:26:25;;;;;;;17.70;15.90;;;;;;;22.60;88.06;95228.31;4988408;28;20223;-86
2023/06/30 08:28:51;;;;;;;17.15;15.45;;;;;;;22.61;88.11;95229.91;4988669;28;20206;-86
2023/06/30 08:31:18;;;;;;;16.67;14.95;;;;;;;22.69;86.70;95228.59;4988959;28;20231;-87
2023/06/30 08:33:46;;;;;;;16.48;13.75;;;;;;;22.73;85.05;95234.88;4988885;28;20668;-85
2023/06/30 08:36:12;;;;;;;14.48;13.07;;;;;;;22.79;83.69;95236.50;4988851;28;20206;-86
2023/06/30 08:38:39;;;;;;;13.80;12.50;;;;;;;22.84;81.62;95222.59;4987077;28;20199;-85
2023/06/30 08:41:05;;;;;;;13.43;12.05;;;;;;;22.87;81.76;95224.72;4990701;28;20214;-86
2023/06/30 08:43:32;;;;;;;13.13;11.82;;;;;;;22.88;80.27;95221.03;4992662;28;20238;-86
2023/06/30 08:46:02;;;;;;;13.65;12.35;;;;;;;22.86;80.26;95226.53;4992758;28;20405;-85
2023/06/30 08:48:30;;;;;;;12.05;10.93;;;;;;;22.87;77.70;95224.72;4992652;28;20227;-86
2023/06/30 08:50:59;;;;;;;11.07;9.98;;;;;;;22.86;77.58;95228.38;4992090;28;20203;-85
2023/06/30 08:53:28;;;;;;;12.20;11.00;;;;;;;22.82;76.88;95229.94;4992262;28;20218;-85
2023/06/30 08:55:57;;;;;;;11.55;10.23;;;;;;;22.87;77.27;95225.50;4991904;28;20294;-86
2023/06/30 08:58:25;;;;;;;9.60;8.57;;;;;;;22.78;73.47;95232.31;4992036;28;20668;-86
2023/06/30 09:00:52;;;;;;;9.45;8.55;;;;;;;22.77;74.28;95240.41;4992124;28;20554;-86
2023/06/30 09:03:18;;;;;;;9.85;8.88;;;;;;;22.78;72.59;95239.38;4991985;28;20699;-86
2023/06/30 09:05:47;;;;;;;9.50;8.60;;;;;;;22.82;71.86;95235.19;4991911;28;20242;-86
2023/06/30 09:08:21;;;;;;;8.57;7.68;;;;;;;22.87;69.80;95237.84;4992292;28;20765;-86
2023/06/30 09:10:49;;;;;;;8.95;8.05;;;;;;;22.93;69.92;95231.50;4990187;28;20730;-85
2023/06/30 09:13:22;;;;;;;9.63;8.65;;;;;;;22.98;70.53;95228.91;4992293;28;20214;-86
2023/06/30 09:15:52;;;;;;;9.13;8.20;;;;;;;23.06;69.87;95231.00;4992077;28;20207;-86
2023/06/30 09:18:26;;;;;;;10.43;8.60;;;;;;;23.14;70.57;95225.22;4992209;28;20537;-86
2023/06/30 09:20:56;;;;;;;10.07;9.07;;;;;;;23.16;69.83;95227.56;4991213;28;20203;-85
2023/06/30 09:23:32;;;;;;;11.38;10.23;;;;;;;23.27;71.11;95227.31;4992243;28;20207;-85
2023/06/30 09:25:58;;;;;;;10.02;9.00;;;;;;;23.45;70.61;95225.97;4990769;28;20759;-86
2023/06/30 09:28:25;;;;;;;9.25;8.35;;;;;;;23.59;70.45;95221.75;4991346;28;20218;-85
2023/06/30 09:30:52;;;;;;;8.52;7.82;;;;;;;23.71;65.78;95222.25;4991409;28;20708;-86
2023/06/30 09:33:20;;;;;;;11.45;8.23;;;;;;;23.84;63.85;95220.13;4991817;28;20219;-86
2023/06/30 09:35:48;;;;;;;11.02;9.88;;;;;;;23.87;64.60;95217.72;4992043;28;20239;-85
2023/06/30 09:38:16;;;;;;;10.35;9.45;;;;;;;23.85;62.98;95211.19;4991754;28;20207;-85
2023/06/30 09:40:45;;;;;;;11.48;10.27;;;;;;;23.87;64.08;95222.19;4991192;28;20207;-86
2023/06/30 09:43:16;;;;;;;10.90;9.90;;;;;;;23.94;66.12;95214.81;4989852;28;20592;-86
2023/06/30 09:45:44;;;;;;;12.43;10.90;;;;;;;23.94;66.12;95220.88;4991015;28;20665;-85
2023/06/30 09:48:12;;;;;;;12.18;10.98;;;;;;;24.02;65.65;95225.56;4991640;28;20203;-85
2023/06/30 09:50:38;;;;;;;11.40;10.30;;;;;;;24.02;65.72;95224.78;4991262;28;20203;-86
2023/06/30 09:53:05;;;;;;;12.75;11.45;;;;;;;24.04;67.14;95222.69;4989568;28;20231;-86
2023/06/30 09:55:31;;;;;;;13.90;12.50;;;;;;;24.05;68.74;95221.63;4991171;28;20208;-85
2023/06/30 09:57:59;;;;;;;13.63;12.32;;;;;;;24.10;69.78;95218.94;4991518;28;20210;-85
2023/06/30 10:00:28;;;;;;;17.30;13.93;;;;;;;24.09;70.40;95218.16;4990790;28;21079;-86
2023/06/30 10:03:02;;;;;;;14.73;13.18;;;;;;;24.16;69.13;95214.47;4991280;28;20231;-86
2023/06/30 10:05:29;;;;;;;15.07;13.57;;;;;;;24.31;67.94;95217.81;4990905;28;20199;-85
2023/06/30 10:07:55;;;;;;;15.60;13.90;;;;;;;24.46;67.94;95214.31;4991006;28;20203;-85
2023/06/30 10:10:25;;;;;;;15.85;14.18;;;;;;;24.44;67.37;95216.44;4991189;28;20696;-86
2023/06/30 10:12:52;;;;;;;14.82;13.43;;;;;;;24.39;66.22;95209.38;4990734;28;20216;-85
2023/06/30 10:15:20;;;;;;;15.27;13.77;;;;;;;24.22;66.12;95205.50;4989501;28;20204;-84
2023/06/30 10:17:48;;;;;;;15.57;14.07;;;;;;;24.22;66.17;95205.50;4991191;28;20648;-85
2023/06/30 10:20:14;;;;;;;14.43;13.02;;;;;;;24.11;65.85;95216.06;4989532;28;20200;-85
2023/06/30 10:22:43;;;;;;;13.48;12.18;;;;;;;23.96;64.75;95218.75;4990612;28;20235;-85
2023/06/30 10:25:11;;;;;;;11.77;10.60;;;;;;;23.99;63.34;95212.97;4991136;28;20295;-85
2023/06/30 10:27:39;;;;;;;11.35;10.23;;;;;;;23.98;63.63;95213.22;4990214;28;20266;-85
2023/06/30 10:30:07;;;;;;;11.50;10.40;;;;;;;23.80;61.52;95217.25;4991200;28;20203;-85
2023/06/30 10:32:35;;;;;;;11.55;10.38;;;;;;;23.75;61.85;95210.16;4989148;28;20235;-85
2023/06/30 10:35:02;;;;;;;11.93;10.80;;;;;;;23.65;60.76;95212.81;4990358;28;20199;-85
2023/06/30 10:37:29;;;;;;;11.48;10.48;;;;;;;23.67;61.83;95215.16;4990716;28;20744;-85
2023/06/30 10:39:56;;;;;;;13.60;12.30;;;;;;;23.47;64.60;95210.75;4990880;28;20428;-85
2023/06/30 10:42:26;;;;;;;14.50;12.98;;;;;;;23.46;66.44;95221.50;4990090;28;20624;-85
2023/06/30 10:44:59;;;;;;;11.30;10.20;;;;;;;23.20;69.36;95226.78;4990448;28;20218;-85
2023/06/30 10:47:27;;;;;;;10.32;9.27;;;;;;;23.00;71.86;95235.47;4988847;28;20231;-85
2023/06/30 10:49:55;;;;;;;10.63;9.25;;;;;;;22.90;73.32;95239.94;4990420;28;20235;-85
2023/06/30 10:52:26;;;;;;;10.30;9.30;;;;;;;22.78;76.53;95242.00;4990100;28;20228;-85
2023/06/30 10:54:53;;;;;;;11.75;9.98;;;;;;;22.67;78.00;95241.19;4990047;28;20211;-85
2023/06/30 10:57:21;;;;;;;10.10;9.18;;;;;;;22.66;79.97;95229.91;4989964;28;20207;-85
2023/06/30 11:00:02;;;;;;;10.70;9.63;;;;;;;22.61;82.98;95231.72;4990352;28;20208;-86
2023/06/30 11:02:32;;;;;;;10.80;9.68;;;;;;;22.64;81.83;95228.59;4989899;28;20215;-86
2023/06/30 11:05:19;;;;;;;10.45;9.43;;;;;;;22.61;84.79;95222.03;4989278;28;20204;-86
2023/06/30 11:07:48;;;;;;;10.18;9.18;;;;;;;22.67;82.75;95215.75;4990008;28;20261;-86
2023/06/30 11:10:26;;;;;;;10.48;9.48;;;;;;;22.76;82.64;95213.38;4990276;28;20239;-86
2023/06/30 11:12:54;;;;;;;9.98;8.98;;;;;;;22.84;82.56;95212.88;4989766;28;20708;-86
2023/06/30 11:15:38;;;;;;;12.20;9.70;;;;;;;22.92;84.10;95201.84;4990631;28;20211;-85
2023/06/30 11:18:06;;;;;;;9.80;8.82;;;;;;;23.11;82.46;95199.47;4990044;28;20195;-85
2023/06/30 11:20:34;;;;;;;11.35;9.15;;;;;;;23.29;82.35;95212.06;4987807;28;20266;-86
2023/06/30 11:23:02;;;;;;;9.77;8.65;;;;;;;23.50;79.72;95197.03;4989651;28;20708;-85
2023/06/30 11:25:30;;;;;;;8.90;8.07;;;;;;;23.58;77.54;95199.16;4989891;28;20207;-86
2023/06/30 11:27:57;;;;;;;8.77;7.88;;;;;;;23.60;79.31;95198.91;4989408;28;20219;-86